createdAt,value
2019-05-09T00:01:26.783Z,24.27
2019-05-09T00:03:54.364Z,24.28
2019-05-09T00:06:20.082Z,24.28
2019-05-09T00:08:46.709Z,24.28
2019-05-09T00:11:14.427Z,24.31
2019-05-09T00:13:40.003Z,24.22
2019-05-09T00:16:06.651Z,24.26
2019-05-09T00:18:33.745Z,24.23
2019-05-09T00:20:59.938Z,24.26
2019-05-09T00:23:26.581Z,24.20
2019-05-09T00:25:53.767Z,24.23
2019-05-09T00:28:19.877Z,24.21
2019-05-09T00:30:46.523Z,24.19
2019-05-09T00:33:14.311Z,24.17
2019-05-09T00:35:39.805Z,24.19
2019-05-09T00:38:06.458Z,24.17
2019-05-09T00:40:34.165Z,24.18
2019-05-09T00:42:59.764Z,24.17
2019-05-09T00:45:26.385Z,24.16
2019-05-09T00:47:53.924Z,24.11
2019-05-09T00:50:19.670Z,24.15
2019-05-09T00:52:46.309Z,24.11
2019-05-09T00:55:13.293Z,24.14
2019-05-09T00:57:39.576Z,24.09
2019-05-09T01:00:06.214Z,24.10
2019-05-09T01:02:34.066Z,24.05
2019-05-09T01:04:59.496Z,24.07
2019-05-09T01:07:26.158Z,24.02
2019-05-09T01:09:54.334Z,24.07
2019-05-09T01:12:19.445Z,23.97
2019-05-09T01:14:46.084Z,24.02
2019-05-09T01:17:13.588Z,24.01
2019-05-09T01:22:06.093Z,23.99
2019-05-09T01:24:33.771Z,23.99
2019-05-09T01:26:59.382Z,23.99
2019-05-09T01:29:26.025Z,23.96
2019-05-09T01:31:54.123Z,23.96
2019-05-09T01:34:19.339Z,23.96
2019-05-09T01:36:45.993Z,23.95
2019-05-09T01:39:13.790Z,23.95
2019-05-09T01:44:05.905Z,23.92
2019-05-09T01:46:34.055Z,23.92
2019-05-09T01:48:59.198Z,23.91
2019-05-09T01:51:25.839Z,23.93
2019-05-09T01:53:53.177Z,23.90
2019-05-09T01:56:19.125Z,23.86
2019-05-09T01:58:45.763Z,23.85
2019-05-09T02:01:13.451Z,23.87
2019-05-09T02:03:39.057Z,23.83
2019-05-09T02:06:05.702Z,23.84
2019-05-09T02:08:34.551Z,23.83
2019-05-09T02:10:58.991Z,23.84
2019-05-09T02:13:25.646Z,23.78
2019-05-09T02:15:53.871Z,23.82
2019-05-09T02:18:18.930Z,23.76
2019-05-09T02:20:45.575Z,23.80
2019-05-09T02:23:13.990Z,23.80
2019-05-09T02:25:38.858Z,23.79
2019-05-09T02:28:05.510Z,23.75
2019-05-09T02:30:35.767Z,23.75
2019-05-09T02:32:58.805Z,23.74
2019-05-09T02:35:28.504Z,23.73
2019-05-09T02:37:52.088Z,23.71
2019-05-09T02:40:18.992Z,23.71
2019-05-09T02:42:48.715Z,23.68
2019-05-09T02:45:12.046Z,23.71
2019-05-09T02:47:38.945Z,23.66
2019-05-09T02:50:08.558Z,23.69
2019-05-09T02:52:32.028Z,23.66
2019-05-09T02:54:58.757Z,23.68
2019-05-09T02:57:25.359Z,23.62
2019-05-09T02:59:51.989Z,23.68
2019-05-09T03:02:19.606Z,23.66
2019-05-09T03:04:45.285Z,23.58
2019-05-09T03:07:11.923Z,22.98
2019-05-09T03:09:38.970Z,22.74
2019-05-09T03:12:23.107Z,22.43
2019-05-09T03:14:31.875Z,22.32
2019-05-09T03:16:58.965Z,22.20
2019-05-09T03:19:25.152Z,22.16
2019-05-09T03:21:51.798Z,22.06
2019-05-09T03:24:18.761Z,22.05
2019-05-09T03:26:45.077Z,22.16
2019-05-09T03:29:11.734Z,22.14
2019-05-09T03:31:39.449Z,22.33
2019-05-09T03:34:05.035Z,22.61
2019-05-09T03:36:31.673Z,22.78
2019-05-09T03:38:58.311Z,22.88
2019-05-09T03:41:24.944Z,22.93
2019-05-09T03:43:51.589Z,23.07
2019-05-09T03:46:18.270Z,23.00
2019-05-09T03:48:44.915Z,22.97
2019-05-09T03:51:11.545Z,22.96
2019-05-09T03:53:38.199Z,22.93
2019-05-09T03:56:04.860Z,22.93
2019-05-09T03:58:31.527Z,23.00
2019-05-09T04:00:58.166Z,23.02
2019-05-09T04:03:24.803Z,23.05
2019-05-09T04:05:59.294Z,22.93
2019-05-09T04:08:18.500Z,22.89
2019-05-09T04:10:44.764Z,22.86
2019-05-09T04:13:11.423Z,22.86
2019-05-09T04:15:38.062Z,22.85
2019-05-09T04:18:04.705Z,22.85
2019-05-09T04:20:31.359Z,23.03
2019-05-09T04:22:59.568Z,23.04
2019-05-09T04:25:24.673Z,22.93
2019-05-09T04:27:51.305Z,22.86
2019-05-09T04:30:18.340Z,22.81
2019-05-09T04:32:44.660Z,22.85
2019-05-09T04:35:13.610Z,22.84
2019-05-09T04:37:40.243Z,22.90
2019-05-09T04:40:08.235Z,22.97
2019-05-09T04:42:35.009Z,23.05
2019-05-09T04:45:03.558Z,23.14
2019-05-09T04:47:27.827Z,23.27
2019-05-09T04:49:53.586Z,23.36
2019-05-09T04:52:20.225Z,23.46
2019-05-09T04:54:48.435Z,23.70
2019-05-09T04:57:13.526Z,23.73
2019-05-09T04:59:40.223Z,23.73
2019-05-09T05:02:08.609Z,23.79
2019-05-09T05:04:33.632Z,23.83
2019-05-09T05:07:00.272Z,23.88
2019-05-09T05:11:53.569Z,24.15
2019-05-09T05:14:20.211Z,24.21
2019-05-09T05:16:53.019Z,24.23
2019-05-09T05:19:13.502Z,24.33
2019-05-09T05:21:40.145Z,24.42
2019-05-09T05:24:08.183Z,24.55
2019-05-09T05:26:33.516Z,24.52
2019-05-09T05:29:00.160Z,24.44
2019-05-09T05:31:28.538Z,24.30
2019-05-09T05:33:54.006Z,24.37
2019-05-09T05:36:20.145Z,24.48
2019-05-09T05:38:47.940Z,24.67
2019-05-09T05:41:13.498Z,24.71
2019-05-09T05:43:44.391Z,24.77
2019-05-09T05:46:07.693Z,24.87
2019-05-09T05:48:33.515Z,25.04
2019-05-09T05:51:00.179Z,25.11
2019-05-09T05:55:53.533Z,25.28
2019-05-09T05:58:20.586Z,25.37
2019-05-09T06:00:48.130Z,25.43
2019-05-09T06:03:13.955Z,25.66
2019-05-09T06:05:40.670Z,25.59
2019-05-09T06:08:10.714Z,25.65
2019-05-09T06:10:37.857Z,25.61
2019-05-09T06:13:04.046Z,25.66
2019-05-09T06:15:30.702Z,25.80
2019-05-09T06:17:58.094Z,25.92
2019-05-09T06:20:24.043Z,25.92
2019-05-09T06:22:50.679Z,25.95
2019-05-09T06:25:20.938Z,25.99
2019-05-09T06:27:44.021Z,25.74
2019-05-09T06:30:10.679Z,25.91
2019-05-09T06:32:38.467Z,25.81
2019-05-09T06:35:04.062Z,25.79
2019-05-09T06:37:30.703Z,26.06
2019-05-09T06:39:58.279Z,25.89
2019-05-09T06:42:25.480Z,26.02
2019-05-09T06:44:50.731Z,25.96
2019-05-09T06:47:18.545Z,26.04
2019-05-09T06:49:44.097Z,26.12
2019-05-09T06:52:10.745Z,25.95
2019-05-09T06:54:41.260Z,26.09
2019-05-09T06:57:04.051Z,25.95
2019-05-09T06:59:30.693Z,26.11
2019-05-09T07:01:57.624Z,26.14
2019-05-09T07:04:24.039Z,26.15
2019-05-09T07:06:50.691Z,25.96
2019-05-09T07:09:17.579Z,25.93
2019-05-09T07:14:25.607Z,26.09
2019-05-09T07:16:37.704Z,26.11
2019-05-09T07:19:04.084Z,26.13
2019-05-09T07:21:30.733Z,25.89
2019-05-09T07:23:58.327Z,26.00
2019-05-09T07:26:24.058Z,26.20
2019-05-09T07:28:50.697Z,26.20
2019-05-09T07:31:17.732Z,25.96
2019-05-09T07:33:44.039Z,26.13
2019-05-09T07:36:10.727Z,26.24
2019-05-09T07:38:38.453Z,26.28
2019-05-09T07:41:04.074Z,26.26
2019-05-09T07:43:30.730Z,26.24
2019-05-09T07:45:58.014Z,26.18
2019-05-09T07:48:24.065Z,26.27
2019-05-09T07:50:50.750Z,26.17
2019-05-09T07:53:17.716Z,26.07
2019-05-09T07:55:44.066Z,25.86
2019-05-09T07:58:14.106Z,25.98
2019-05-09T08:00:38.442Z,26.03
2019-05-09T08:03:04.026Z,26.03
2019-05-09T08:05:30.662Z,26.01
2019-05-09T08:07:58.550Z,26.09
2019-05-09T08:10:24.068Z,25.94
2019-05-09T08:12:50.720Z,25.96
2019-05-09T08:15:20.061Z,26.11
2019-05-09T08:17:44.031Z,26.01
2019-05-09T08:20:13.694Z,25.99
2019-05-09T08:22:42.172Z,26.17
2019-05-09T08:25:04.048Z,26.09
2019-05-09T08:27:30.649Z,26.15
2019-05-09T08:29:58.342Z,26.06
2019-05-09T08:32:24.008Z,26.08
2019-05-09T08:34:50.650Z,26.07
2019-05-09T08:37:17.635Z,26.29
2019-05-09T08:39:43.996Z,26.31
2019-05-09T08:42:10.657Z,26.24
2019-05-09T08:44:37.910Z,26.23
2019-05-09T08:47:04.111Z,26.12
2019-05-09T08:49:30.795Z,25.97
2019-05-09T08:52:10.236Z,25.49
2019-05-09T08:54:24.195Z,25.43
2019-05-09T08:56:50.809Z,25.41
2019-05-09T08:59:18.337Z,25.62
2019-05-09T09:02:08.381Z,25.58
2019-05-09T09:04:10.920Z,25.58
2019-05-09T09:06:38.059Z,25.67
2019-05-09T09:09:04.297Z,25.48
2019-05-09T09:11:30.998Z,25.58
2019-05-09T09:13:57.858Z,25.59
2019-05-09T09:16:24.354Z,25.59
2019-05-09T09:18:50.999Z,25.80
2019-05-09T09:23:49.724Z,25.96
2019-05-09T09:26:11.034Z,25.94
2019-05-09T09:28:38.114Z,25.69
2019-05-09T09:31:04.442Z,25.56
2019-05-09T09:33:31.082Z,25.40
2019-05-09T09:35:58.022Z,25.22
2019-05-09T09:38:24.426Z,25.35
2019-05-09T09:40:51.070Z,25.45
2019-05-09T09:43:17.904Z,25.55
2019-05-09T09:45:44.383Z,25.70
2019-05-09T09:48:11.087Z,25.78
2019-05-09T09:50:38.441Z,25.94
2019-05-09T09:53:04.415Z,26.08
2019-05-09T09:55:31.042Z,25.96
2019-05-09T09:57:58.070Z,26.05
2019-05-09T10:00:24.406Z,26.09
2019-05-09T10:02:51.048Z,26.11
2019-05-09T10:05:18.313Z,26.08
2019-05-09T10:07:44.464Z,26.22
2019-05-09T10:10:11.257Z,26.19
2019-05-09T10:12:44.466Z,26.20
2019-05-09T10:15:04.708Z,26.27
2019-05-09T10:17:31.428Z,26.19
2019-05-09T10:19:58.094Z,26.37
2019-05-09T10:22:26.175Z,26.31
2019-05-09T10:24:51.434Z,26.29
2019-05-09T10:27:18.611Z,26.41
2019-05-09T10:29:44.737Z,26.31
2019-05-09T10:32:11.391Z,26.30
2019-05-09T10:34:38.047Z,26.14
2019-05-09T10:37:04.738Z,26.26
2019-05-09T10:39:31.379Z,26.25
2019-05-09T10:41:58.083Z,26.16
2019-05-09T10:44:24.731Z,26.27
2019-05-09T10:46:57.312Z,26.14
2019-05-09T10:49:18.038Z,26.31
2019-05-09T10:51:44.729Z,26.27
2019-05-09T10:54:11.382Z,26.24
2019-05-09T10:56:38.533Z,26.27
2019-05-09T10:59:04.718Z,26.27
2019-05-09T11:01:31.359Z,26.21
2019-05-09T11:03:58.941Z,26.23
2019-05-09T11:06:24.760Z,26.23
2019-05-09T11:08:51.403Z,26.39
2019-05-09T11:13:44.776Z,26.31
2019-05-09T11:16:11.433Z,26.26
2019-05-09T11:18:38.086Z,26.39
2019-05-09T11:21:04.726Z,26.26
2019-05-09T11:23:31.421Z,26.25
2019-05-09T11:25:58.172Z,26.29
2019-05-09T11:28:24.853Z,26.25
2019-05-09T11:30:51.510Z,26.22
2019-05-09T11:33:18.341Z,26.30
2019-05-09T11:35:44.890Z,26.39
2019-05-09T11:38:11.667Z,26.27
2019-05-09T11:40:38.201Z,26.31
2019-05-09T11:43:04.903Z,26.34
2019-05-09T11:45:31.505Z,26.32
2019-05-09T11:47:58.488Z,26.20
2019-05-09T11:50:24.849Z,26.22
2019-05-09T11:52:51.498Z,26.28
2019-05-09T11:55:29.717Z,26.40
2019-05-09T11:57:44.816Z,26.46
2019-05-09T12:00:11.516Z,26.21
2019-05-09T12:02:38.658Z,26.33
2019-05-09T12:05:04.890Z,26.42
2019-05-09T12:07:31.613Z,26.44
2019-05-09T12:09:58.978Z,26.43
2019-05-09T12:12:24.923Z,26.23
2019-05-09T12:14:51.560Z,26.11
2019-05-09T12:17:19.563Z,26.09
2019-05-09T12:19:44.877Z,26.14
2019-05-09T12:22:11.537Z,26.34
2019-05-09T12:24:38.542Z,26.26
2019-05-09T12:27:04.900Z,26.09
2019-05-09T12:29:31.538Z,26.06
2019-05-09T12:31:58.225Z,26.23
2019-05-09T12:34:27.600Z,26.13
2019-05-09T12:36:51.663Z,26.14
2019-05-09T12:39:18.927Z,26.14
2019-05-09T12:41:45.000Z,26.14
2019-05-09T12:44:11.650Z,26.14
2019-05-09T12:46:39.409Z,26.20
2019-05-09T12:49:05.162Z,26.23
2019-05-09T12:51:31.816Z,26.27
2019-05-09T12:53:58.491Z,26.16
2019-05-09T12:56:25.132Z,26.09
2019-05-09T12:58:51.935Z,26.06
2019-05-09T13:01:19.007Z,26.16
2019-05-09T13:03:45.390Z,26.21
2019-05-09T13:08:38.879Z,26.08
2019-05-09T13:11:07.821Z,25.98
2019-05-09T13:13:32.409Z,26.08
2019-05-09T13:15:58.831Z,26.01
2019-05-09T13:18:29.524Z,26.01
2019-05-09T13:20:52.118Z,26.09
2019-05-09T13:23:18.768Z,25.96
2019-05-09T13:25:45.520Z,25.96
2019-05-09T13:30:38.722Z,25.70
2019-05-09T13:33:08.155Z,25.57
2019-05-09T13:35:32.057Z,25.44
2019-05-09T13:37:59.707Z,25.55
2019-05-09T13:40:28.869Z,25.68
2019-05-09T13:42:52.052Z,25.63
2019-05-09T13:45:18.831Z,25.66
2019-05-09T13:47:45.343Z,25.87
2019-05-09T13:50:12.038Z,25.81
2019-05-09T13:52:38.694Z,25.96
2019-05-09T13:55:05.549Z,26.11
2019-05-09T13:57:32.187Z,26.08
2019-05-09T13:59:59.768Z,25.78
2019-05-09T14:02:28.529Z,25.93
2019-05-09T14:04:52.255Z,26.14
2019-05-09T14:07:19.440Z,26.09
2019-05-09T14:09:48.166Z,25.89
2019-05-09T14:12:12.239Z,25.78
2019-05-09T14:14:38.979Z,25.84
2019-05-09T14:17:08.291Z,25.96
2019-05-09T14:19:42.548Z,25.87
2019-05-09T14:21:58.984Z,25.93
2019-05-09T14:24:27.765Z,26.01
2019-05-09T14:26:52.306Z,25.96
2019-05-09T14:29:20.636Z,25.91
2019-05-09T14:31:45.655Z,25.82
2019-05-09T14:34:12.288Z,25.82
2019-05-09T14:36:44.490Z,25.79
2019-05-09T14:39:05.638Z,25.98
2019-05-09T14:41:32.299Z,25.84
2019-05-09T14:43:59.835Z,25.69
2019-05-09T14:46:25.624Z,25.71
2019-05-09T14:48:52.340Z,25.68
2019-05-09T14:51:18.999Z,25.59
2019-05-09T14:53:45.677Z,25.56
2019-05-09T14:56:12.316Z,25.60
2019-05-09T14:58:39.026Z,25.56
2019-05-09T15:01:08.383Z,25.50
2019-05-09T15:03:32.336Z,25.47
2019-05-09T15:05:58.987Z,25.46
2019-05-09T15:08:27.823Z,25.41
2019-05-09T15:10:52.299Z,25.40
2019-05-09T15:13:18.957Z,25.36
2019-05-09T15:15:47.903Z,25.34
2019-05-09T15:18:12.286Z,25.32
2019-05-09T15:20:38.917Z,25.30
2019-05-09T15:23:05.569Z,25.29
2019-05-09T15:25:32.235Z,25.29
2019-05-09T15:27:58.923Z,25.30
2019-05-09T15:30:28.405Z,25.28
2019-05-09T15:35:18.548Z,25.25
2019-05-09T15:37:48.072Z,25.23
2019-05-09T15:43:08.447Z,25.21
2019-05-09T15:45:34.862Z,25.18
2019-05-09T15:48:01.525Z,25.18
2019-05-09T15:50:28.225Z,25.17
2019-05-09T15:52:54.871Z,25.16
2019-05-09T15:55:21.515Z,25.13
2019-05-09T15:57:48.676Z,25.13
2019-05-09T16:00:14.837Z,25.10
2019-05-09T16:02:41.491Z,25.09
2019-05-09T16:05:10.554Z,25.08
2019-05-09T16:07:37.366Z,25.07
2019-05-09T16:10:01.636Z,25.05
2019-05-09T16:12:28.272Z,25.05
2019-05-09T16:14:54.965Z,25.04
2019-05-09T16:17:21.626Z,25.04
2019-05-09T16:19:48.404Z,25.04
2019-05-09T16:22:15.069Z,25.01
2019-05-09T16:24:41.721Z,25.00
2019-05-09T16:27:08.596Z,24.99
2019-05-09T16:32:01.743Z,24.98
2019-05-09T16:34:28.389Z,24.95
2019-05-09T16:36:55.041Z,24.97
2019-05-09T16:39:21.701Z,24.94
2019-05-09T16:41:48.776Z,24.94
2019-05-09T16:44:18.230Z,24.92
2019-05-09T16:46:41.645Z,24.92
2019-05-09T16:49:11.719Z,24.91
2019-05-09T16:51:34.932Z,24.88
2019-05-09T16:54:01.592Z,24.87
2019-05-09T16:56:28.831Z,24.88
2019-05-09T16:58:54.931Z,24.88
2019-05-09T17:01:21.590Z,24.85
2019-05-09T17:03:48.322Z,24.84
2019-05-09T17:06:14.932Z,24.83
2019-05-09T17:08:41.575Z,24.81
2019-05-09T17:11:08.219Z,24.83
2019-05-09T17:13:34.868Z,24.82
2019-05-09T17:16:01.512Z,24.80
2019-05-09T17:18:28.496Z,24.78
2019-05-09T17:20:54.800Z,24.78
2019-05-09T17:23:21.455Z,24.76
2019-05-09T17:25:48.244Z,24.73
2019-05-09T17:28:14.825Z,24.73
2019-05-09T17:30:41.471Z,24.71
2019-05-09T17:33:08.138Z,24.71
2019-05-09T17:35:34.774Z,24.71
2019-05-09T17:38:01.543Z,24.70
2019-05-09T17:40:28.242Z,24.68
2019-05-09T17:42:54.874Z,24.67
2019-05-09T17:45:21.566Z,24.66
2019-05-09T17:50:14.870Z,24.68
2019-05-09T17:52:41.515Z,24.63
2019-05-09T17:55:08.206Z,24.63
2019-05-09T17:57:34.856Z,24.63
2019-05-09T18:00:01.566Z,24.67
2019-05-09T18:02:28.273Z,24.63
2019-05-09T18:04:54.874Z,24.53
2019-05-09T18:07:21.528Z,24.57
2019-05-09T18:09:48.539Z,24.59
2019-05-09T18:12:14.817Z,24.59
2019-05-09T18:14:41.515Z,24.57
2019-05-09T18:17:08.148Z,24.53
2019-05-09T18:19:34.852Z,24.55
2019-05-09T18:22:01.558Z,24.54
2019-05-09T18:24:28.848Z,24.52
2019-05-09T18:26:54.913Z,24.50
2019-05-09T18:29:21.552Z,24.51
2019-05-09T18:31:48.392Z,24.49
2019-05-09T18:34:14.854Z,24.46
2019-05-09T18:36:41.593Z,24.46
2019-05-09T18:39:08.249Z,24.49
2019-05-09T18:41:34.934Z,24.48
2019-05-09T18:44:01.579Z,24.47
2019-05-09T18:46:28.226Z,24.44
2019-05-09T18:48:54.880Z,24.42
2019-05-09T18:51:21.517Z,24.44
2019-05-09T18:53:48.158Z,24.41
2019-05-09T18:56:14.843Z,24.43
2019-05-09T18:58:41.478Z,24.40
2019-05-09T19:01:08.129Z,24.40
2019-05-09T19:03:34.789Z,24.38
2019-05-09T19:08:28.138Z,24.38
2019-05-09T19:10:54.947Z,24.38
2019-05-09T19:13:21.564Z,24.38
2019-05-09T19:15:48.230Z,24.36
2019-05-09T19:18:14.857Z,24.36
2019-05-09T19:20:41.535Z,24.34
2019-05-09T19:23:08.179Z,24.34
2019-05-09T19:25:34.870Z,24.33
2019-05-09T19:28:01.564Z,24.34
2019-05-09T19:30:28.283Z,24.32
2019-05-09T19:32:54.920Z,24.32
2019-05-09T19:35:21.572Z,24.34
2019-05-09T19:37:48.213Z,24.30
2019-05-09T19:40:19.966Z,24.30
2019-05-09T19:42:41.523Z,24.30
2019-05-09T19:45:08.211Z,24.27
2019-05-09T19:47:34.852Z,24.27
2019-05-09T19:50:01.723Z,24.28
2019-05-09T19:52:37.764Z,24.27
2019-05-09T19:54:54.837Z,24.28
2019-05-09T19:57:21.527Z,24.27
2019-05-09T19:59:48.157Z,24.28
2019-05-09T20:02:14.804Z,24.25
2019-05-09T20:04:41.450Z,24.24
2019-05-09T20:07:10.944Z,24.23
2019-05-09T20:09:37.602Z,24.21
2019-05-09T20:12:04.240Z,24.19
2019-05-09T20:16:57.533Z,24.20
2019-05-09T20:19:24.216Z,24.20
2019-05-09T20:21:50.890Z,24.19
2019-05-09T20:24:17.538Z,24.18
2019-05-09T20:26:44.190Z,24.16
2019-05-09T20:29:10.909Z,24.18
2019-05-09T20:31:37.624Z,24.17
2019-05-09T20:34:04.245Z,24.17
2019-05-09T20:36:30.885Z,24.16
2019-05-09T20:38:57.530Z,24.13
2019-05-09T20:41:24.212Z,24.16
2019-05-09T20:43:50.867Z,24.11
2019-05-09T20:46:17.534Z,24.12
2019-05-09T20:48:44.174Z,24.14
2019-05-09T20:51:10.817Z,24.12
2019-05-09T20:53:37.468Z,24.10
2019-05-09T20:56:04.114Z,24.09
2019-05-09T20:58:30.787Z,24.08
2019-05-09T21:00:57.472Z,24.09
2019-05-09T21:03:24.114Z,24.09
2019-05-09T21:05:50.773Z,24.06
2019-05-09T21:08:17.463Z,24.06
2019-05-09T21:10:44.093Z,24.06
2019-05-09T21:13:10.776Z,24.05
2019-05-09T21:15:37.416Z,24.03
2019-05-09T21:18:04.156Z,24.02
2019-05-09T21:20:30.805Z,24.03
2019-05-09T21:22:57.469Z,24.00
2019-05-09T21:25:24.128Z,24.00
2019-05-09T21:27:50.848Z,23.98
2019-05-09T21:30:17.485Z,23.97
2019-05-09T21:32:45.614Z,23.85
2019-05-09T21:37:37.564Z,23.78
2019-05-09T21:40:04.274Z,23.71
2019-05-09T21:42:30.914Z,23.70
2019-05-09T21:44:57.553Z,23.76
2019-05-09T21:47:24.218Z,23.68
2019-05-09T21:49:50.856Z,23.72
2019-05-09T21:52:17.498Z,23.78
2019-05-09T21:54:44.135Z,23.74
2019-05-09T21:57:10.782Z,23.74
2019-05-09T21:59:37.430Z,23.74
2019-05-09T22:02:04.118Z,23.75
2019-05-09T22:04:30.756Z,23.78
2019-05-09T22:06:57.421Z,23.78
2019-05-09T22:11:50.775Z,23.81
2019-05-09T22:14:17.462Z,23.83
2019-05-09T22:16:44.221Z,23.80
2019-05-09T22:19:10.857Z,23.82
2019-05-09T22:21:37.498Z,23.81
2019-05-09T22:24:04.192Z,23.82
2019-05-09T22:26:30.824Z,23.81
2019-05-09T22:28:57.485Z,23.82
2019-05-09T22:31:24.128Z,23.82
2019-05-09T22:33:50.816Z,23.79
2019-05-09T22:36:20.611Z,23.82
2019-05-09T22:38:47.295Z,23.77
2019-05-09T22:41:13.946Z,23.81
2019-05-09T22:43:40.594Z,23.80
2019-05-09T22:46:07.287Z,23.80
2019-05-09T22:48:33.916Z,23.79
2019-05-09T22:51:00.625Z,23.79
2019-05-09T22:53:27.302Z,23.79
2019-05-09T22:55:53.949Z,23.79
2019-05-09T22:58:20.595Z,23.79
2019-05-09T23:00:47.245Z,23.80
2019-05-09T23:03:13.878Z,23.76
2019-05-09T23:05:40.520Z,23.75
2019-05-09T23:08:07.270Z,23.76
2019-05-09T23:10:33.946Z,23.75
2019-05-09T23:13:00.604Z,23.72
2019-05-09T23:15:27.347Z,23.73
2019-05-09T23:17:54.003Z,23.73
2019-05-09T23:20:20.647Z,23.73
2019-05-09T23:22:47.280Z,23.70
2019-05-09T23:25:13.922Z,23.70
2019-05-09T23:27:40.567Z,23.69
2019-05-09T23:32:33.914Z,23.71
2019-05-09T23:35:00.576Z,23.70
2019-05-09T23:37:27.217Z,23.73
2019-05-09T23:39:53.874Z,23.69
2019-05-09T23:42:20.559Z,23.70
2019-05-09T23:44:47.214Z,23.69
2019-05-09T23:47:13.860Z,23.71
2019-05-09T23:49:40.516Z,23.72
2019-05-09T23:52:07.158Z,23.71
2019-05-09T23:54:45.068Z,23.70
2019-05-09T23:57:00.555Z,23.69
2019-05-09T23:59:27.233Z,23.70
